Ana Sayfa
METAR-TAF:

METAR-TAF

Havaalanları :

Balıkesir Merkez Havalimanı

Balıkesir, Türkiye

Enlem: 39-37N, Boylam: 027-55E, yükseklik: 101 m

Güncel hava durumu gözlemi

Rapor saat 06:50 UTC de 27 dakika önce yapıldı.
Sakin rüzgar
Sıcaklık 13°C
Nem 100%
Basınç 1019 hPa
Görüş mesafesi: 2000 m
1500 ft yükseklikte parçalı bulutlu
Pus

METAR: LTBF 220650Z 00000KT 2000 BR SCT015 13/13 Q1019 BECMG TL0800 9999 NSW

Saat: 10:17 (07:17 UTC)

Tahmin

Rapor saat 04:40 UTC de 2 saat ve 37 dakika önce yapıldı.
Ayın 22'si saat 06 UTC'den ayın 22'si saat 15 UTC'ye kadar geçerli Tahmin
Rüzgar kuzeydan 5 kt
Görüş mesafesi: 3500 m
1200 ft yükseklikte parçalı çok bulutlu
Pus
Dönüşüyor
ayın 22'si saat 06 UTC'den ayın 22'si saat 08 UTC'ye kadar
Görüş mesafesi 10 km veya daha fazla
1700 ft yükseklikte az bulutlu
3500 ft yükseklikte parçalı bulutlu

TAF: LTBF 220440Z 2206/2215 01005KT 3500 BR BKN012 BECMG 2206/2208 9999 NSW FEW017 SCT035

4.000'den fazla havaalanı için hava durumu gözlemleri ve tahminleri (METAR ve TAF raporları).

Kullanılabilir istasyonlar harita üzerinde sarı ve kırmızı noktalarla gösterilir.

İstasyonun adını görmek için fareyi noktanın üzerinde gezdirin.

Sonrasında hava gözlem ve tahminlerini görmek için tıklayın.

Haritayı değiştirmek için: yaklaştırmak için siyah artı işaretli yeşil düğmeye ve uzaklaştırmak için de eksi işaretli düğmeye hızla tıklayın; bitişik haritalar için yeşil okları kullanın.


METAR-TAF: